Flight Track Log - Related Links

Times and Time Zones

All times are in EDT time to prevent confusion due to time zone crossing. See the SWA1619 flight status page for this flight to view local times or setup timezone preferences in your user account.

Time Position Orientation Groundspeed Altitude Reporting Facility
EDT Latitude Longitude Course Direction KTS MPH feet Rate Location/Type
Tue 08:05:13 AM 29.6356 -95.2675 29° Northeast 137 158 800  Level Houston Center
Tue 08:06:26 AM 29.6772 -95.2408 29° Northeast 247 284 3,500 1,920 Climbing Houston Center
Tue 08:07:18 AM 29.7308 -95.2553 347° North 258 297 4,800 1,433 Climbing Houston Center
Tue 08:07:33 AM 29.7603 -95.2764 328° Northwest 313 360 5,100 1,645 Climbing Houston Center
Tue 08:08:20 AM 29.8014 -95.3092 325° Northwest 298 343 6,500 3,278 Climbing Houston Center
Tue 08:09:21 AM 29.8853 -95.3700 328° Northwest 297 342 11,000 3,934 Climbing Houston Center
Tue 08:10:22 AM 29.9689 -95.4158 335° Northwest 340 391 14,500 2,976 Climbing Houston Center
Tue 08:11:24 AM 30.0536 -95.3522 33° Northeast 371 427 17,100 2,585 Climbing Houston Center
Tue 08:12:25 AM 30.1372 -95.2708 40° Northeast 391 450 19,800 2,754 Climbing Houston Center
Tue 08:13:26 AM 30.2269 -95.1831 40° Northeast 419 482 22,700 2,732 Climbing Houston Center
Tue 08:14:28 AM 30.3194 -95.0911 41° Northeast 436 502 25,400 2,488 Climbing Houston Center
Tue 08:15:29 AM 30.4189 -94.9933 40° Northeast 457 526 27,800 2,049 Climbing Houston Center
Tue 08:16:31 AM 30.5267 -94.9097 34° Northeast 464 534 29,600 1,854 Climbing Houston Center
Tue 08:17:32 AM 30.6406 -94.8233 33° Northeast 480 552 31,600 2,000 Climbing Houston Center
Tue 08:18:34 AM 30.7544 -94.7369 33° Northeast 488 562 33,700 2,000 Climbing Houston Center
Tue 08:19:35 AM 30.8922 -94.6303 34° Northeast 495 570 35,700 1,753 Climbing Houston Center
Tue 08:20:03 AM 30.9336 -94.5969 35° Northeast 494 568 36,300 1,500 Climbing Fort Worth Center
Tue 08:21:03 AM 31.0525 -94.5061 33° Northeast 494 568 37,900 1,500 Climbing Fort Worth Center
Tue 08:22:03 AM 31.1694 -94.4200 32° Northeast 494 568 39,300 1,300 Climbing Fort Worth Center
Tue 08:23:03 AM 31.2819 -94.3239 36° Northeast 499 574 40,500 850 Climbing Fort Worth Center
Tue 08:24:03 AM 31.3989 -94.2350 33° Northeast 499 574 41,000 250 Climbing Fort Worth Center
Tue 08:25:03 AM 31.5136 -94.1481 33° Northeast 499 574 41,000  Level Fort Worth Center
Tue 08:26:03 AM 31.6261 -94.0589 34° Northeast 494 568 41,000  Level Fort Worth Center
Tue 08:27:03 AM 31.7364 -93.9742 33° Northeast 485 558 41,000  Level Fort Worth Center
Tue 08:28:03 AM 31.8314 -93.8606 45° Northeast 485 558 41,000  Level Fort Worth Center
Tue 08:29:03 AM 31.9217 -93.7322 50° Northeast 485 558 41,000  Level Fort Worth Center
Tue 08:30:03 AM 32.0056 -93.6064 52° Northeast 491 565 41,000  Level Fort Worth Center
Tue 08:31:03 AM 32.0933 -93.4753 52° Northeast 496 571 41,000  Level Fort Worth Center
Tue 08:32:03 AM 32.1789 -93.3392 53° Northeast 504 580 41,000  Level Fort Worth Center
Tue 08:33:03 AM 32.2664 -93.2097 51° Northeast 509 586 41,000  Level Fort Worth Center
Tue 08:34:03 AM 32.3542 -93.0903 49° Northeast 501 577 41,000  Level Fort Worth Center
Tue 08:35:03 AM 32.4414 -92.9531 53° Northeast 496 571 41,000  Level Fort Worth Center
Tue 08:36:03 AM 32.5264 -92.8258 52° Northeast 496 571 41,000  Level Fort Worth Center
Tue 08:37:03 AM 32.6156 -92.6956 51° Northeast 496 571 41,000  Level Fort Worth Center
Tue 08:39:17 AM 32.8033 -92.4111 52° Northeast 484 557 41,000  Level Memphis Center
Tue 08:40:17 AM 32.8869 -92.2794 53° Northeast 490 564 41,000  Level Memphis Center
Tue 08:41:17 AM 32.9722 -92.1525 51° Northeast 490 564 41,000  Level Memphis Center
Tue 08:42:17 AM 33.0575 -92.0203 52° Northeast 495 570 41,000  Level Memphis Center
Tue 08:43:17 AM 33.1406 -91.8881 53° Northeast 490 564 41,000  Level Memphis Center
Tue 08:44:17 AM 33.2278 -91.7553 52° Northeast 502 578 41,000  Level Memphis Center
Tue 08:45:17 AM 33.3147 -91.6225 52° Northeast 502 578 41,000  Level Memphis Center
Tue 08:46:17 AM 33.3975 -91.4919 53° Northeast 502 578 41,000  Level Memphis Center
Tue 08:47:17 AM 33.4800 -91.3608 53° Northeast 502 578 41,000  Level Memphis Center
Tue 08:48:17 AM 33.5667 -91.2297 52° Northeast 502 578 41,000  Level Memphis Center
Tue 08:49:17 AM 33.6489 -91.0983 53° Northeast 497 572 41,000  Level Memphis Center
Tue 08:50:17 AM 33.7331 -90.9667 52° Northeast 492 566 41,000  Level Memphis Center
Tue 08:51:17 AM 33.8150 -90.8397 52° Northeast 492 566 41,000  Level Memphis Center
Tue 08:52:17 AM 33.8967 -90.7075 53° Northeast 492 566 41,000  Level Memphis Center
Tue 08:53:17 AM 33.9869 -90.5650 53° Northeast 487 560 41,000  Level Memphis Center
Tue 08:54:17 AM 34.0683 -90.4325 53° Northeast 487 560 41,000  Level Memphis Center
Tue 08:55:17 AM 34.1478 -90.3019 54° Northeast 482 555 41,000  Level Memphis Center
Tue 08:56:17 AM 34.2311 -90.1711 52° Northeast 487 560 41,000  Level Memphis Center
Tue 08:57:17 AM 34.3122 -90.0378 54° Northeast 482 555 41,000 -200 Level Memphis Center
Tue 08:58:17 AM 34.3931 -89.9042 54° Northeast 488 562 40,600 -650 Descending Memphis Center
Tue 08:59:17 AM 34.4758 -89.7700 53° Northeast 493 567 39,700 -950 Descending Memphis Center
Tue 09:00:17 AM 34.5567 -89.6333 54° Northeast 493 567 38,700 -950 Descending Memphis Center
Tue 09:01:17 AM 34.6433 -89.4939 53° Northeast 506 582 37,800 -950 Descending Memphis Center
Tue 09:02:17 AM 34.7258 -89.3564 54° Northeast 501 577 36,800 -1,000 Descending Memphis Center
Tue 09:03:17 AM 34.8061 -89.2267 53° Northeast 486 559 35,800 -900 Descending Memphis Center
Tue 09:04:17 AM 34.8861 -89.0939 54° Northeast 486 559 35,000 -400 Descending Memphis Center
Tue 09:05:17 AM 34.9681 -88.9583 54° Northeast 486 559 35,000  Level Memphis Center
Tue 09:06:17 AM 35.0478 -88.8225 54° Northeast 486 559 35,000  Level Memphis Center
Tue 09:07:17 AM 35.1275 -88.6917 53° Northeast 480 552 35,000  Level Memphis Center
Tue 09:08:17 AM 35.2069 -88.5578 54° Northeast 486 559 35,000 -1,050 Level Memphis Center
Tue 09:09:17 AM 35.2764 -88.4469 52° Northeast 471 542 32,900 -2,350 Descending Memphis Center
Tue 09:10:17 AM 35.3556 -88.3153 54° Northeast 464 534 30,300 -2,450 Descending Memphis Center
Tue 09:11:17 AM 35.4306 -88.1808 56° Northeast 470 541 28,000 -2,350 Descending Memphis Center
Tue 09:12:17 AM 35.5094 -88.0489 54° Northeast 456 525 25,600 -2,050 Descending Memphis Center
Tue 09:13:17 AM 35.5719 -87.9425 54° Northeast 439 505 23,900 -1,900 Descending Memphis Center
Tue 09:14:17 AM 35.6386 -87.8281 54° Northeast 427 491 21,800 -2,000 Descending Memphis Center
Tue 09:15:17 AM 35.7050 -87.7136 54° Northeast 416 479 19,900 -1,900 Descending Memphis Center
Tue 09:16:17 AM 35.7653 -87.6067 55° Northeast 391 450 18,000 -1,850 Descending Memphis Center
Tue 09:17:17 AM 35.8233 -87.4972 57° Northeast 380 437 16,200 -1,850 Descending Memphis Center
Tue 09:18:17 AM 35.8750 -87.3931 59° Northeast 370 426 14,300 -1,850 Descending Memphis Center
Tue 09:19:17 AM 35.9203 -87.2786 64° Northeast 359 413 12,500 -1,700 Descending Memphis Center
Tue 09:20:17 AM 35.9444 -87.1700 75° East 336 387 10,900 -1,350 Descending Memphis Center
Tue 09:21:17 AM 35.9775 -87.0739 67° East 319 367 9,800 -1,250 Descending Memphis Center
Tue 09:22:17 AM 36.0147 -86.9850 63° Northeast 292 336 8,400 -1,400 Descending Memphis Center
Tue 09:23:17 AM 36.0519 -86.8961 63° Northeast 282 325 7,000 -1,250 Descending Memphis Center
Tue 09:24:17 AM 36.0869 -86.8125 63° Northeast 282 325 5,900 -1,000 Descending Memphis Center
Tue 09:25:17 AM 36.1569 -86.7786 21° North 263 303 5,000 -1,150 Descending Memphis Center
Tue 09:26:17 AM 36.2269 -86.7500 18° North 252 290 3,600 -1,000 Descending Memphis Center
Tue 09:27:17 AM 36.2842 -86.7061 32° Northeast 252 290 3,000 -650 Descending Memphis Center
Tue 09:28:17 AM 36.2717 -86.6372 103° East 169 194 2,300 -500 Descending Memphis Center
Tue 09:29:17 AM 36.2258 -86.6419 185° South 107 123 2,000 -300 Descending Memphis Center
Tue 09:30:17 AM 36.1950 -86.6561 200° South 126 145 1,700 -450 Descending Memphis Center
Tue 09:31:17 AM 36.1642 -86.6678 197° South 126 145 1,100 -600 Descending Memphis Center
Tue 09:33:00 AM 36.1167 -86.6667 171° South  Level FlightAware Approximate
Tue 09:40:00 AM 36.1245 -86.6782 171° South  Level Estimated

Login

Don't have an account? Register now (free) for customized features, flight alerts, and more!